createdAt,value
2017-12-01T00:02:11.941Z,1.90
2017-12-01T00:04:40.516Z,1.90
2017-12-01T00:07:09.388Z,2.00
2017-12-01T00:09:37.467Z,1.90
2017-12-01T00:12:06.678Z,1.90
2017-12-01T00:14:35.145Z,1.90
2017-12-01T00:17:03.600Z,1.90
2017-12-01T00:19:32.104Z,1.90
2017-12-01T00:22:00.586Z,1.90
2017-12-01T00:24:28.660Z,1.80
2017-12-01T00:26:57.478Z,1.80
2017-12-01T00:29:25.549Z,1.80
2017-12-01T00:31:54.418Z,1.80
2017-12-01T00:34:23.713Z,1.80
2017-12-01T00:36:51.886Z,1.70
2017-12-01T00:39:20.038Z,1.70
2017-12-01T00:41:48.544Z,1.70
2017-12-01T00:44:17.014Z,1.60
2017-12-01T00:46:45.921Z,1.60
2017-12-01T00:49:14.805Z,1.50
2017-12-01T00:51:43.692Z,1.40
2017-12-01T00:54:11.875Z,1.50
2017-12-01T00:56:39.941Z,1.50
2017-12-01T00:59:08.013Z,1.50
2017-12-01T01:01:36.089Z,1.40
2017-12-01T01:04:04.257Z,1.40
2017-12-01T01:06:32.329Z,1.40
2017-12-01T01:09:00.398Z,1.40
2017-12-01T01:11:28.473Z,1.40
2017-12-01T01:13:56.541Z,1.40
2017-12-01T01:16:24.611Z,1.50
2017-12-01T01:18:52.670Z,1.50
2017-12-01T01:21:20.765Z,1.50
2017-12-01T01:23:48.832Z,1.50
2017-12-01T01:26:16.892Z,1.50
2017-12-01T01:28:44.982Z,1.40
2017-12-01T01:31:13.058Z,1.40
2017-12-01T01:33:41.234Z,1.30
2017-12-01T01:36:09.301Z,1.30
2017-12-01T01:38:37.477Z,1.30
2017-12-01T01:41:05.539Z,1.30
2017-12-01T01:43:33.741Z,1.30
2017-12-01T01:46:01.893Z,1.30
2017-12-01T01:48:29.965Z,1.20
2017-12-01T01:50:58.038Z,1.10
2017-12-01T01:53:26.132Z,1.10
2017-12-01T01:55:54.284Z,1.10
2017-12-01T01:58:22.337Z,1.10
2017-12-01T02:00:50.426Z,1.10
2017-12-01T02:03:18.602Z,1.10
2017-12-01T02:05:46.681Z,1.10
2017-12-01T02:08:14.851Z,1.00
2017-12-01T02:10:43.674Z,1.00
2017-12-01T02:13:11.745Z,1.00
2017-12-01T02:15:39.883Z,1.00
2017-12-01T02:18:09.185Z,1.00
2017-12-01T02:20:37.357Z,0.90
2017-12-01T02:23:05.424Z,0.90
2017-12-01T02:25:33.874Z,0.90
2017-12-01T02:28:02.800Z,0.90
2017-12-01T02:30:30.877Z,0.90
2017-12-01T02:32:58.946Z,0.90
2017-12-01T02:35:27.005Z,1.00
2017-12-01T02:37:55.486Z,1.00
2017-12-01T02:40:23.550Z,1.00
2017-12-01T02:42:52.006Z,1.00
2017-12-01T02:45:20.935Z,1.00
2017-12-01T02:47:49.010Z,1.10
2017-12-01T02:50:17.090Z,1.00
2017-12-01T02:52:45.549Z,1.00
2017-12-01T02:55:14.354Z,1.00
2017-12-01T02:57:42.440Z,0.90
2017-12-01T03:00:10.498Z,1.00
2017-12-01T03:02:38.682Z,1.00
2017-12-01T03:05:06.742Z,1.10
2017-12-01T03:07:34.822Z,1.10
2017-12-01T03:10:02.915Z,1.10
2017-12-01T03:12:31.074Z,1.10
2017-12-01T03:14:59.146Z,1.00
2017-12-01T03:17:27.233Z,1.00
2017-12-01T03:19:55.392Z,1.00
2017-12-01T03:22:23.567Z,1.10
2017-12-01T03:24:51.626Z,1.20
2017-12-01T03:27:19.711Z,1.20
2017-12-01T03:29:47.786Z,1.20
2017-12-01T03:32:16.610Z,1.20
2017-12-01T03:34:44.691Z,1.20
2017-12-01T03:37:13.518Z,1.20
2017-12-01T03:39:41.610Z,1.20
2017-12-01T03:42:09.665Z,1.20
2017-12-01T03:44:37.746Z,1.10
2017-12-01T03:47:05.928Z,1.20
2017-12-01T03:49:34.721Z,1.10
2017-12-01T03:52:02.803Z,1.20
2017-12-01T03:54:30.861Z,1.10
2017-12-01T03:56:58.939Z,1.10
2017-12-01T03:59:27.774Z,1.20
2017-12-01T04:01:56.622Z,1.20
2017-12-01T04:04:24.693Z,1.30
2017-12-01T04:06:53.530Z,1.30
2017-12-01T04:09:21.634Z,1.30
2017-12-01T04:11:49.710Z,1.30
2017-12-01T04:14:17.799Z,1.30
2017-12-01T04:16:45.882Z,1.40
2017-12-01T04:19:14.026Z,1.30
2017-12-01T04:21:42.086Z,1.40
2017-12-01T04:24:11.303Z,1.40
2017-12-01T04:26:39.482Z,1.40
2017-12-01T04:29:07.558Z,1.40
2017-12-01T04:31:35.627Z,1.60
2017-12-01T04:34:04.498Z,1.50
2017-12-01T04:36:32.600Z,1.50
2017-12-01T04:39:00.755Z,1.50
2017-12-01T04:41:28.826Z,1.50
2017-12-01T04:43:58.045Z,1.60
2017-12-01T04:46:26.201Z,3.40
2017-12-01T04:48:54.277Z,1.50
2017-12-01T04:51:23.167Z,1.50
2017-12-01T04:53:51.994Z,1.40
2017-12-01T04:56:20.122Z,1.40
2017-12-01T04:58:48.185Z,1.30
2017-12-01T05:01:17.398Z,1.30
2017-12-01T05:03:46.245Z,1.30
2017-12-01T05:06:15.080Z,1.30
2017-12-01T05:08:43.159Z,1.30
2017-12-01T05:11:11.234Z,1.40
2017-12-01T05:13:39.332Z,1.40
2017-12-01T05:16:07.467Z,1.30
2017-12-01T05:18:35.944Z,1.40
2017-12-01T05:21:04.011Z,1.40
2017-12-01T05:23:32.079Z,1.30
2017-12-01T05:26:00.159Z,1.30
2017-12-01T05:28:28.235Z,1.20
2017-12-01T05:30:57.104Z,1.30
2017-12-01T05:33:25.338Z,1.10
2017-12-01T05:35:53.811Z,1.10
2017-12-01T05:38:22.367Z,1.10
2017-12-01T05:40:50.954Z,1.10
2017-12-01T05:43:19.798Z,1.00
2017-12-01T05:45:48.730Z,0.90
2017-12-01T05:48:17.639Z,0.90
2017-12-01T05:50:46.498Z,0.90
2017-12-01T05:53:14.970Z,0.90
2017-12-01T05:55:43.437Z,0.90
2017-12-01T05:58:11.946Z,0.90
2017-12-01T06:00:40.454Z,0.90
2017-12-01T06:03:08.910Z,0.80
2017-12-01T06:05:37.837Z,0.70
2017-12-01T06:08:06.129Z,0.80
2017-12-01T06:10:34.215Z,0.80
2017-12-01T06:13:03.142Z,0.70
2017-12-01T06:15:31.206Z,0.70
2017-12-01T06:17:59.300Z,0.80
2017-12-01T06:20:27.466Z,0.80
2017-12-01T06:22:56.367Z,0.80
2017-12-01T06:25:25.772Z,0.80
2017-12-01T06:27:53.826Z,0.70
2017-12-01T06:30:22.326Z,0.60
2017-12-01T06:32:51.169Z,0.50
2017-12-01T06:35:20.011Z,0.50
2017-12-01T06:37:48.523Z,0.40
2017-12-01T06:40:16.976Z,0.50
2017-12-01T06:42:45.149Z,0.50
2017-12-01T06:45:13.335Z,0.40
2017-12-01T06:47:41.373Z,0.40
2017-12-01T06:50:09.472Z,0.50
2017-12-01T06:52:38.446Z,0.40
2017-12-01T06:55:07.319Z,0.40
2017-12-01T06:57:36.987Z,0.30
2017-12-01T07:00:05.820Z,0.20
2017-12-01T07:02:34.737Z,0.20
2017-12-01T07:05:02.864Z,0.20
2017-12-01T07:07:32.455Z,0.20
2017-12-01T07:12:29.850Z,0.10
2017-12-01T07:14:57.918Z,0.00
2017-12-01T07:17:25.996Z,0.00
2017-12-01T07:19:54.063Z,1.50
2017-12-01T07:22:22.175Z,0.80
2017-12-01T07:24:50.234Z,0.80
2017-12-01T07:27:18.294Z,0.70
2017-12-01T07:29:46.387Z,0.60
2017-12-01T07:32:14.454Z,0.50
2017-12-01T07:34:42.581Z,0.50
2017-12-01T07:37:10.682Z,0.40
2017-12-01T07:39:38.744Z,0.30
2017-12-01T07:42:07.206Z,0.40
2017-12-01T07:44:40.658Z,0.40
2017-12-01T07:47:08.734Z,0.40
2017-12-01T07:49:36.799Z,0.40
2017-12-01T07:52:04.873Z,0.50
2017-12-01T07:54:32.930Z,0.70
2017-12-01T07:57:01.011Z,1.10
2017-12-01T07:59:29.091Z,1.60
2017-12-01T08:01:57.156Z,1.90
2017-12-01T08:04:25.221Z,1.80
2017-12-01T08:06:53.286Z,1.80
2017-12-01T08:09:21.358Z,2.40
2017-12-01T08:11:49.426Z,2.60
2017-12-01T08:14:18.643Z,2.70
2017-12-01T08:16:58.414Z,2.60
2017-12-01T08:19:26.499Z,2.20
2017-12-01T08:22:06.377Z,1.90
2017-12-01T08:24:46.174Z,1.80
2017-12-01T08:27:14.238Z,1.80
2017-12-01T08:29:42.298Z,1.80
2017-12-01T08:32:10.770Z,1.70
2017-12-01T08:34:38.850Z,1.70
2017-12-01T08:37:07.027Z,1.70
2017-12-01T08:39:35.105Z,2.20
2017-12-01T08:42:03.178Z,2.30
2017-12-01T08:44:32.022Z,2.20
2017-12-01T08:47:00.082Z,2.00
2017-12-01T08:49:28.564Z,1.90
2017-12-01T08:51:57.390Z,1.80
2017-12-01T08:54:25.474Z,1.80
2017-12-01T08:56:53.538Z,1.80
2017-12-01T08:59:21.626Z,2.00
2017-12-01T09:01:49.691Z,2.30
2017-12-01T09:04:17.782Z,2.40
2017-12-01T09:06:45.943Z,2.80
2017-12-01T09:09:14.733Z,4.00
2017-12-01T09:11:43.610Z,4.90
2017-12-01T09:14:11.669Z,6.40
2017-12-01T09:16:40.493Z,7.80
2017-12-01T09:19:08.582Z,8.90
2017-12-01T09:21:36.663Z,10.00
2017-12-01T09:24:05.493Z,10.40
2017-12-01T09:26:33.586Z,10.40
2017-12-01T09:29:01.659Z,9.60
2017-12-01T09:31:29.714Z,9.60
2017-12-01T09:33:58.187Z,9.70
2017-12-01T09:36:26.262Z,10.60
2017-12-01T09:38:55.484Z,10.10
2017-12-01T09:41:23.679Z,10.40
2017-12-01T09:43:51.827Z,10.40
2017-12-01T09:46:19.994Z,10.60
2017-12-01T09:48:48.078Z,11.20
2017-12-01T09:51:16.171Z,10.80
2017-12-01T09:53:44.239Z,11.40
2017-12-01T09:56:12.390Z,11.30
2017-12-01T09:58:40.471Z,11.30
2017-12-01T10:01:08.549Z,11.40
2017-12-01T10:03:36.626Z,10.50
2017-12-01T10:06:04.694Z,9.00
2017-12-01T10:08:32.854Z,7.90
2017-12-01T10:11:01.027Z,7.30
2017-12-01T10:13:29.206Z,6.90
2017-12-01T10:15:58.052Z,6.40
2017-12-01T10:18:26.980Z,6.00
2017-12-01T10:20:55.078Z,6.00
2017-12-01T10:23:23.127Z,6.30
2017-12-01T10:25:51.185Z,7.30
2017-12-01T10:28:20.022Z,7.80
2017-12-01T10:30:48.086Z,7.90
2017-12-01T10:33:16.162Z,8.10
2017-12-01T10:35:44.642Z,8.10
2017-12-01T10:38:12.702Z,7.60
2017-12-01T10:40:41.549Z,7.10
2017-12-01T10:43:09.667Z,6.70
2017-12-01T10:45:38.487Z,6.10
2017-12-01T10:48:07.431Z,5.50
2017-12-01T10:50:35.603Z,5.00
2017-12-01T10:53:03.674Z,4.60
2017-12-01T10:55:31.738Z,4.50
2017-12-01T10:58:00.230Z,4.20
2017-12-01T11:00:28.386Z,3.80
2017-12-01T11:02:56.494Z,3.70
2017-12-01T11:05:24.652Z,3.50
2017-12-01T11:07:52.719Z,3.20
2017-12-01T11:10:20.894Z,3.10
2017-12-01T11:12:49.734Z,3.10
2017-12-01T11:15:18.574Z,3.20
2017-12-01T11:17:46.654Z,3.20
2017-12-01T11:20:14.819Z,3.20
2017-12-01T11:22:42.882Z,3.30
2017-12-01T11:25:10.967Z,3.30
2017-12-01T11:27:39.045Z,3.20
2017-12-01T11:30:07.215Z,3.30
2017-12-01T11:32:35.415Z,3.30
2017-12-01T11:35:03.563Z,3.40
2017-12-01T11:37:31.635Z,3.40
2017-12-01T11:39:59.714Z,3.70
2017-12-01T11:42:27.879Z,3.80
2017-12-01T11:44:55.942Z,3.90
2017-12-01T11:47:24.123Z,4.10
2017-12-01T11:49:53.323Z,4.00
2017-12-01T11:52:21.594Z,3.90
2017-12-01T11:54:50.543Z,3.90
2017-12-01T11:57:18.578Z,4.00
2017-12-01T11:59:46.730Z,4.00
2017-12-01T12:02:16.032Z,4.00
2017-12-01T12:04:44.207Z,4.00
2017-12-01T12:07:12.282Z,4.10
2017-12-01T12:09:40.353Z,4.10
2017-12-01T12:12:08.531Z,4.10
2017-12-01T12:14:36.594Z,3.90
2017-12-01T12:17:04.770Z,3.70
2017-12-01T12:19:32.835Z,3.60
2017-12-01T12:22:00.939Z,3.50
2017-12-01T12:24:29.006Z,3.40
2017-12-01T12:26:57.063Z,3.40
2017-12-01T12:29:25.133Z,3.40
2017-12-01T12:31:53.193Z,3.50
2017-12-01T12:34:21.283Z,3.70
2017-12-01T12:36:49.355Z,4.10
2017-12-01T12:39:17.427Z,4.30
2017-12-01T12:41:45.499Z,4.40
2017-12-01T12:44:13.959Z,4.30
2017-12-01T12:46:42.030Z,4.10
2017-12-01T12:49:10.100Z,4.00
2017-12-01T12:51:38.574Z,3.80
2017-12-01T12:54:06.646Z,3.80
2017-12-01T12:56:34.750Z,3.80
2017-12-01T12:59:02.814Z,3.80
2017-12-01T13:01:30.878Z,3.70
2017-12-01T13:03:58.960Z,3.80
2017-12-01T13:06:27.047Z,3.80
2017-12-01T13:08:55.113Z,3.80
2017-12-01T13:11:23.170Z,3.70
2017-12-01T13:13:51.241Z,3.80
2017-12-01T13:16:19.305Z,4.00
2017-12-01T13:18:47.391Z,4.10
2017-12-01T13:21:15.455Z,4.10
2017-12-01T13:23:43.531Z,4.00
2017-12-01T13:26:12.434Z,3.90
2017-12-01T13:28:40.598Z,3.90
2017-12-01T13:31:08.870Z,3.80
2017-12-01T13:33:38.075Z,3.70
2017-12-01T13:36:06.138Z,3.60
2017-12-01T13:38:34.324Z,3.50
2017-12-01T13:41:02.395Z,3.50
2017-12-01T13:43:30.562Z,3.40
2017-12-01T13:45:58.744Z,3.30
2017-12-01T13:48:26.802Z,3.30
2017-12-01T13:50:56.115Z,3.30
2017-12-01T13:53:24.182Z,3.30
2017-12-01T13:55:52.259Z,3.30
2017-12-01T13:58:20.326Z,3.30
2017-12-01T14:00:48.408Z,3.10
2017-12-01T14:03:16.574Z,3.20
2017-12-01T14:05:44.634Z,3.20
2017-12-01T14:08:12.755Z,3.30
2017-12-01T14:10:40.891Z,3.40
2017-12-01T14:13:08.958Z,3.30
2017-12-01T14:15:37.138Z,3.20
2017-12-01T14:18:05.218Z,3.20
2017-12-01T14:20:33.283Z,3.10
2017-12-01T14:23:01.455Z,3.10
2017-12-01T14:25:29.569Z,3.10
2017-12-01T14:27:57.698Z,3.10
2017-12-01T14:30:26.915Z,3.00
2017-12-01T14:32:55.069Z,3.00
2017-12-01T14:35:23.251Z,3.00
2017-12-01T14:37:51.317Z,3.00
2017-12-01T14:40:19.398Z,2.90
2017-12-01T14:42:47.468Z,2.90
2017-12-01T14:45:15.687Z,2.80
2017-12-01T14:47:43.722Z,2.80
2017-12-01T14:50:11.775Z,2.80
2017-12-01T14:52:39.853Z,2.80
2017-12-01T14:55:07.928Z,2.90
2017-12-01T14:57:35.998Z,2.70
2017-12-01T15:00:04.259Z,2.60
2017-12-01T15:02:32.342Z,2.50
2017-12-01T15:05:00.411Z,2.50
2017-12-01T15:07:28.470Z,2.40
2017-12-01T15:09:56.543Z,2.40
2017-12-01T15:12:24.594Z,2.40
2017-12-01T15:14:53.439Z,2.20
2017-12-01T15:17:21.514Z,2.20
2017-12-01T15:19:49.597Z,2.10
2017-12-01T15:22:17.655Z,1.90
2017-12-01T15:24:45.753Z,1.90
2017-12-01T15:27:13.834Z,1.90
2017-12-01T15:29:42.658Z,1.90
2017-12-01T15:32:11.118Z,1.90
2017-12-01T15:34:39.198Z,1.90
2017-12-01T15:37:08.041Z,1.90
2017-12-01T15:39:36.243Z,1.80
2017-12-01T15:42:04.278Z,1.70
2017-12-01T15:44:32.430Z,1.60
2017-12-01T15:47:00.487Z,1.60
2017-12-01T15:49:28.563Z,1.60
2017-12-01T15:51:56.632Z,1.50
2017-12-01T15:54:24.718Z,1.60
2017-12-01T15:56:52.789Z,1.60
2017-12-01T15:59:20.846Z,1.50
2017-12-01T16:01:48.929Z,1.60
2017-12-01T16:04:17.420Z,1.60
2017-12-01T16:06:45.590Z,1.60
2017-12-01T16:09:13.666Z,1.60
2017-12-01T16:11:41.746Z,1.60
2017-12-01T16:14:09.916Z,1.60
2017-12-01T16:16:37.989Z,1.70
2017-12-01T16:19:06.814Z,1.60
2017-12-01T16:21:35.364Z,1.80
2017-12-01T16:24:04.156Z,1.70
2017-12-01T16:26:32.231Z,1.70
2017-12-01T16:29:00.397Z,1.60
2017-12-01T16:31:28.461Z,1.70
2017-12-01T16:33:57.682Z,1.70
2017-12-01T16:36:25.738Z,1.80
2017-12-01T16:38:54.286Z,1.80
2017-12-01T16:41:22.600Z,1.80
2017-12-01T16:43:51.022Z,1.90
2017-12-01T16:46:19.625Z,1.80
2017-12-01T16:48:48.164Z,1.90
2017-12-01T16:51:16.262Z,1.90
2017-12-01T16:53:45.155Z,1.90
2017-12-01T16:56:13.813Z,1.90
2017-12-01T16:58:42.727Z,2.00
2017-12-01T17:01:10.965Z,2.00
2017-12-01T17:03:40.296Z,2.00
2017-12-01T17:06:09.911Z,2.00
2017-12-01T17:08:38.517Z,1.90
2017-12-01T17:11:07.468Z,1.80
2017-12-01T17:13:35.978Z,1.80
2017-12-01T17:16:04.906Z,1.90
2017-12-01T17:18:34.133Z,1.80
2017-12-01T17:21:03.002Z,1.80
2017-12-01T17:23:31.182Z,1.90
2017-12-01T17:25:59.349Z,1.90
2017-12-01T17:28:27.614Z,1.90
2017-12-01T17:30:55.798Z,1.90
2017-12-01T17:33:24.787Z,1.90
2017-12-01T17:35:52.971Z,1.80
2017-12-01T17:38:21.483Z,1.80
2017-12-01T17:40:50.061Z,1.90
2017-12-01T17:43:18.986Z,1.90
2017-12-01T17:45:47.834Z,1.90
2017-12-01T17:48:16.305Z,1.80
2017-12-01T17:50:45.666Z,1.80
2017-12-01T17:53:14.606Z,1.90
2017-12-01T17:55:43.423Z,1.80
2017-12-01T17:58:11.567Z,1.80
2017-12-01T18:00:40.042Z,1.70
2017-12-01T18:03:08.118Z,1.70
2017-12-01T18:05:36.598Z,1.70
2017-12-01T18:08:05.489Z,1.80
2017-12-01T18:10:34.071Z,1.70
2017-12-01T18:13:02.249Z,1.80
2017-12-01T18:15:31.240Z,5.70
2017-12-01T18:18:00.092Z,1.80
2017-12-01T18:20:29.129Z,1.80
2017-12-01T18:22:57.905Z,1.70
2017-12-01T18:25:26.375Z,1.70
2017-12-01T18:27:55.795Z,1.80
2017-12-01T18:30:24.284Z,1.70
2017-12-01T18:32:52.759Z,1.70
2017-12-01T18:35:21.582Z,1.60
2017-12-01T18:37:49.658Z,1.70
2017-12-01T18:40:17.794Z,1.60
2017-12-01T18:42:47.026Z,1.60
2017-12-01T18:45:15.851Z,1.60
2017-12-01T18:47:43.930Z,1.70
2017-12-01T18:50:12.023Z,1.70
2017-12-01T18:52:41.246Z,1.60
2017-12-01T18:55:09.802Z,1.40
2017-12-01T18:57:38.714Z,1.40
2017-12-01T19:00:06.874Z,1.40
2017-12-01T19:02:35.058Z,1.30
2017-12-01T19:05:03.166Z,1.20
2017-12-01T19:07:31.707Z,1.20
2017-12-01T19:10:00.958Z,1.20
2017-12-01T19:12:29.846Z,1.10
2017-12-01T19:14:58.754Z,1.10
2017-12-01T19:17:27.288Z,1.00
2017-12-01T19:19:55.739Z,1.00
2017-12-01T19:22:23.807Z,1.00
2017-12-01T19:24:51.866Z,1.00
2017-12-01T19:27:20.176Z,1.00
2017-12-01T19:29:48.242Z,1.00
2017-12-01T19:32:17.107Z,1.00
2017-12-01T19:34:45.976Z,1.00
2017-12-01T19:37:14.899Z,1.00
2017-12-01T19:39:42.977Z,0.90
2017-12-01T19:42:11.053Z,1.00
2017-12-01T19:44:39.338Z,1.00
2017-12-01T19:47:08.180Z,0.90
2017-12-01T19:49:37.045Z,0.90
2017-12-01T19:52:05.086Z,0.90
2017-12-01T19:54:33.542Z,1.00
2017-12-01T19:57:01.990Z,1.10
2017-12-01T19:59:30.826Z,1.00
2017-12-01T20:01:59.298Z,1.00
2017-12-01T20:04:27.358Z,1.00
2017-12-01T20:06:55.806Z,0.90
2017-12-01T20:09:25.487Z,0.80
2017-12-01T20:11:53.543Z,0.80
2017-12-01T20:14:22.738Z,0.80
2017-12-01T20:16:53.550Z,0.70
2017-12-01T20:19:22.006Z,0.70
2017-12-01T20:21:51.670Z,0.70
2017-12-01T20:24:20.487Z,0.70
2017-12-01T20:26:48.946Z,0.70
2017-12-01T20:29:17.843Z,0.70
2017-12-01T20:31:46.722Z,0.70
2017-12-01T20:34:15.265Z,0.70
2017-12-01T20:36:43.287Z,0.90
2017-12-01T20:39:12.491Z,0.90
2017-12-01T20:41:40.654Z,1.10
2017-12-01T20:44:09.954Z,1.40
2017-12-01T20:46:38.021Z,1.50
2017-12-01T20:49:06.206Z,1.30
2017-12-01T20:51:34.269Z,1.20
2017-12-01T20:54:03.086Z,1.10
2017-12-01T20:56:31.339Z,1.00
2017-12-01T20:59:01.161Z,0.90
2017-12-01T21:01:29.222Z,0.90
2017-12-01T21:03:57.703Z,0.80
2017-12-01T21:06:25.770Z,0.70
2017-12-01T21:08:54.966Z,0.70
2017-12-01T21:11:23.042Z,0.70
2017-12-01T21:13:51.526Z,0.70
2017-12-01T21:16:19.664Z,0.70
2017-12-01T21:18:48.498Z,0.80
2017-12-01T21:21:17.790Z,0.80
2017-12-01T21:23:45.854Z,0.90
2017-12-01T21:26:13.951Z,0.80
2017-12-01T21:28:42.410Z,0.90
2017-12-01T21:31:10.582Z,0.90
2017-12-01T21:33:38.654Z,0.90
2017-12-01T21:36:06.752Z,1.00
2017-12-01T21:38:34.801Z,0.90
2017-12-01T21:41:02.861Z,0.90
2017-12-01T21:43:30.926Z,0.90
2017-12-01T21:45:59.381Z,0.90
2017-12-01T21:48:27.853Z,0.80
2017-12-01T21:50:55.905Z,0.80
2017-12-01T21:53:24.054Z,0.80
2017-12-01T21:55:52.904Z,0.70
2017-12-01T21:58:21.750Z,0.70
2017-12-01T22:00:50.584Z,0.80
2017-12-01T22:03:19.091Z,0.70
2017-12-01T22:05:47.174Z,0.70
2017-12-01T22:08:15.252Z,0.80
2017-12-01T22:10:44.440Z,0.70
2017-12-01T22:13:13.273Z,0.60
2017-12-01T22:15:41.770Z,0.70
2017-12-01T22:18:10.698Z,0.60
2017-12-01T22:20:39.510Z,0.60
2017-12-01T22:23:08.338Z,0.60
2017-12-01T22:25:36.810Z,0.70
2017-12-01T22:28:05.272Z,0.70
2017-12-01T22:30:34.206Z,0.70
2017-12-01T22:33:03.060Z,0.60
2017-12-01T22:35:31.882Z,0.60
2017-12-01T22:38:00.376Z,0.70
2017-12-01T22:40:28.442Z,0.60
2017-12-01T22:42:57.381Z,0.60
2017-12-01T22:45:25.466Z,0.50
2017-12-01T22:47:53.646Z,0.40
2017-12-01T22:50:23.225Z,0.30
2017-12-01T22:52:52.126Z,0.30
2017-12-01T22:55:20.203Z,0.20
2017-12-01T22:57:48.262Z,0.20
2017-12-01T23:00:17.383Z,0.30
2017-12-01T23:02:46.210Z,0.30
2017-12-01T23:05:15.093Z,0.20
2017-12-01T23:07:43.914Z,0.20
2017-12-01T23:10:11.986Z,0.10
2017-12-01T23:12:40.062Z,0.10
2017-12-01T23:15:08.357Z,0.10
2017-12-01T23:17:37.247Z,0.10
2017-12-01T23:20:05.423Z,0.00
2017-12-01T23:22:34.218Z,0.00
2017-12-01T23:25:02.384Z,-0.10
2017-12-01T23:27:30.468Z,-0.10
2017-12-01T23:29:58.539Z,-0.10
2017-12-01T23:32:26.658Z,-0.20
2017-12-01T23:34:54.772Z,-0.20
2017-12-01T23:37:22.854Z,-0.20
2017-12-01T23:39:51.016Z,-0.20
2017-12-01T23:42:19.195Z,-0.30
2017-12-01T23:44:47.254Z,-0.40
2017-12-01T23:47:15.362Z,-0.40
2017-12-01T23:49:43.502Z,-0.40
2017-12-01T23:52:11.579Z,-0.40
2017-12-01T23:54:39.753Z,-0.50
2017-12-01T23:57:08.695Z,-0.50
2017-12-01T23:59:37.522Z,-0.50
